createdAt,value
2017-08-27T00:01:49.635Z,18.50
2017-08-27T00:04:17.112Z,19.37
2017-08-27T00:06:44.612Z,19.50
2017-08-27T00:09:12.096Z,20.13
2017-08-27T00:11:39.576Z,19.27
2017-08-27T00:14:07.081Z,18.37
2017-08-27T00:16:34.562Z,18.13
2017-08-27T00:19:02.076Z,18.27
2017-08-27T00:21:29.566Z,18.10
2017-08-27T00:23:57.067Z,17.73
2017-08-27T00:26:24.557Z,18.77
2017-08-27T00:28:52.069Z,19.00
2017-08-27T00:31:19.556Z,18.80
2017-08-27T00:33:47.060Z,18.27
2017-08-27T00:36:14.539Z,17.87
2017-08-27T00:38:42.039Z,17.23
2017-08-27T00:41:09.523Z,18.53
2017-08-27T00:43:37.019Z,18.50
2017-08-27T00:46:04.503Z,19.23
2017-08-27T00:48:32.004Z,18.63
2017-08-27T00:50:59.488Z,18.70
2017-08-27T00:53:26.991Z,17.83
2017-08-27T00:55:54.472Z,17.80
2017-08-27T00:58:21.980Z,18.70
2017-08-27T01:00:49.464Z,17.80
2017-08-27T01:03:16.963Z,18.87
2017-08-27T01:05:44.444Z,18.33
2017-08-27T01:08:11.972Z,18.80
2017-08-27T01:10:39.464Z,18.07
2017-08-27T01:13:06.949Z,18.33
2017-08-27T01:15:34.447Z,18.03
2017-08-27T01:18:01.936Z,18.77
2017-08-27T01:20:29.443Z,17.77
2017-08-27T01:22:56.923Z,17.93
2017-08-27T01:25:24.423Z,19.80
2017-08-27T01:27:51.908Z,18.53
2017-08-27T01:30:19.413Z,19.60
2017-08-27T01:32:46.895Z,20.00
2017-08-27T01:35:14.404Z,20.10
2017-08-27T01:37:41.893Z,19.13
2017-08-27T01:40:09.396Z,20.73
2017-08-27T01:42:36.880Z,19.90
2017-08-27T01:45:04.383Z,20.50
2017-08-27T01:47:31.871Z,20.90
2017-08-27T01:49:59.376Z,19.77
2017-08-27T01:52:26.865Z,20.70
2017-08-27T01:54:54.375Z,19.60
2017-08-27T01:57:21.864Z,20.13
2017-08-27T01:59:49.369Z,20.10
2017-08-27T02:02:16.857Z,19.27
2017-08-27T02:04:44.432Z,19.17
2017-08-27T02:07:11.924Z,20.60
2017-08-27T02:09:39.431Z,19.50
2017-08-27T02:12:06.916Z,20.67
2017-08-27T02:14:34.401Z,20.10
2017-08-27T02:17:01.925Z,20.60
2017-08-27T02:19:29.424Z,18.67
2017-08-27T02:21:56.930Z,18.57
2017-08-27T02:24:24.413Z,21.70
2017-08-27T02:26:51.912Z,20.80
2017-08-27T02:29:19.397Z,22.00
2017-08-27T02:31:46.902Z,20.80
2017-08-27T02:34:14.393Z,20.07
2017-08-27T02:36:42.237Z,21.27
2017-08-27T02:39:09.723Z,19.77
2017-08-27T02:41:37.224Z,20.00
2017-08-27T02:44:04.719Z,20.03
2017-08-27T02:46:32.223Z,20.00
2017-08-27T02:48:59.712Z,21.73
2017-08-27T02:51:27.215Z,21.87
2017-08-27T02:53:54.704Z,21.50
2017-08-27T02:56:22.208Z,21.67
2017-08-27T02:58:49.696Z,21.07
2017-08-27T03:01:17.204Z,21.83
2017-08-27T03:03:44.687Z,19.93
2017-08-27T03:06:12.199Z,18.70
2017-08-27T03:08:39.688Z,18.37
2017-08-27T03:11:07.164Z,19.17
2017-08-27T03:13:34.675Z,17.90
2017-08-27T03:16:02.164Z,18.43
2017-08-27T03:18:29.663Z,20.40
2017-08-27T03:20:57.152Z,21.20
2017-08-27T03:23:24.655Z,22.80
2017-08-27T03:25:52.141Z,23.47
2017-08-27T03:28:19.649Z,23.27
2017-08-27T03:30:47.137Z,22.77
2017-08-27T03:33:14.639Z,21.70
2017-08-27T03:35:42.132Z,22.57
2017-08-27T03:38:09.643Z,22.60
2017-08-27T03:40:37.127Z,21.10
2017-08-27T03:43:04.628Z,20.53
2017-08-27T03:45:32.112Z,21.63
2017-08-27T03:47:59.621Z,20.90
2017-08-27T03:50:27.109Z,20.50
2017-08-27T03:52:54.607Z,21.50
2017-08-27T03:55:22.091Z,21.97
2017-08-27T03:57:49.592Z,21.00
2017-08-27T04:00:17.071Z,20.67
2017-08-27T04:02:44.581Z,21.57
2017-08-27T04:05:12.067Z,20.50
2017-08-27T04:07:39.576Z,20.37
2017-08-27T04:10:07.059Z,22.93
2017-08-27T04:12:35.313Z,22.30
2017-08-27T04:15:02.817Z,22.97
2017-08-27T04:17:30.304Z,24.13
2017-08-27T04:19:57.811Z,22.97
2017-08-27T04:22:25.295Z,21.40
2017-08-27T04:24:53.567Z,21.77
2017-08-27T04:27:21.052Z,19.73
2017-08-27T04:29:48.552Z,19.37
2017-08-27T04:32:16.040Z,21.20
2017-08-27T04:34:43.543Z,21.27
2017-08-27T04:37:11.031Z,23.00
2017-08-27T04:39:38.531Z,21.73
2017-08-27T04:42:06.020Z,22.33
2017-08-27T04:44:33.524Z,22.63
2017-08-27T04:47:01.008Z,21.33
2017-08-27T04:49:28.519Z,20.00
2017-08-27T04:51:56.009Z,19.07
2017-08-27T04:54:23.517Z,19.57
2017-08-27T04:56:51.008Z,19.33
2017-08-27T04:59:18.523Z,18.57
2017-08-27T05:01:46.011Z,20.10
2017-08-27T05:04:13.513Z,20.47
2017-08-27T05:06:40.997Z,19.80
2017-08-27T05:09:08.500Z,20.10
2017-08-27T05:11:35.987Z,21.53
2017-08-27T05:14:04.243Z,34.40
2017-08-27T05:16:31.736Z,41.40
2017-08-27T05:18:59.215Z,41.63
2017-08-27T05:21:26.724Z,37.27
2017-08-27T05:23:54.208Z,33.80
2017-08-27T05:26:21.716Z,31.60
2017-08-27T05:28:49.203Z,32.83
2017-08-27T05:31:16.704Z,33.30
2017-08-27T05:33:44.187Z,31.87
2017-08-27T05:36:11.693Z,31.33
2017-08-27T05:38:39.179Z,32.20
2017-08-27T05:41:06.684Z,28.00
2017-08-27T05:43:34.171Z,28.27
2017-08-27T05:46:01.675Z,28.07
2017-08-27T05:48:29.153Z,32.60
2017-08-27T05:50:56.655Z,36.83
2017-08-27T05:53:24.135Z,34.13
2017-08-27T05:55:51.826Z,36.30
2017-08-27T05:58:19.489Z,37.23
2017-08-27T06:00:47.331Z,36.87
2017-08-27T06:03:15.100Z,40.07
2017-08-27T06:05:42.863Z,42.60
2017-08-27T06:08:10.383Z,42.17
2017-08-27T06:10:37.988Z,37.20
2017-08-27T06:13:05.675Z,38.97
2017-08-27T06:15:33.215Z,38.33
2017-08-27T06:18:00.701Z,41.27
2017-08-27T06:20:28.209Z,37.97
2017-08-27T06:22:55.693Z,34.30
2017-08-27T06:25:23.177Z,40.53
2017-08-27T06:27:50.679Z,35.57
2017-08-27T06:30:18.169Z,37.10
2017-08-27T06:32:45.667Z,33.23
2017-08-27T06:35:13.156Z,34.77
2017-08-27T06:37:40.663Z,34.30
2017-08-27T06:40:08.151Z,34.07
2017-08-27T06:42:35.655Z,33.40
2017-08-27T06:45:03.137Z,33.03
2017-08-27T06:47:30.639Z,33.57
2017-08-27T06:49:58.119Z,31.80
2017-08-27T06:52:25.619Z,31.10
2017-08-27T06:54:53.103Z,30.67
2017-08-27T06:57:20.630Z,31.90
2017-08-27T06:59:48.107Z,30.63
2017-08-27T07:02:15.607Z,30.00
2017-08-27T07:04:43.095Z,31.87
2017-08-27T07:07:10.596Z,33.40
2017-08-27T07:09:38.084Z,32.20
2017-08-27T07:12:05.588Z,40.17
2017-08-27T07:14:33.063Z,41.63
2017-08-27T07:17:00.553Z,33.17
2017-08-27T07:19:28.057Z,33.37
2017-08-27T07:21:55.540Z,33.77
2017-08-27T07:24:23.044Z,31.47
2017-08-27T07:26:50.531Z,34.47
2017-08-27T07:29:18.035Z,31.27
2017-08-27T07:31:45.528Z,29.87
2017-08-27T07:34:13.036Z,32.13
2017-08-27T07:36:40.529Z,29.27
2017-08-27T07:39:08.032Z,28.97
2017-08-27T07:41:35.515Z,28.47
2017-08-27T07:44:03.030Z,28.10
2017-08-27T07:46:30.515Z,29.13
2017-08-27T07:48:58.024Z,28.17
2017-08-27T07:51:25.512Z,28.70
2017-08-27T07:53:53.024Z,30.40
2017-08-27T07:56:20.512Z,30.30
2017-08-27T07:58:48.011Z,29.23
2017-08-27T08:01:15.493Z,29.10
2017-08-27T08:03:42.995Z,28.67
2017-08-27T08:06:10.488Z,28.40
2017-08-27T08:08:37.987Z,27.80
2017-08-27T08:11:05.471Z,27.80
2017-08-27T08:13:32.995Z,26.77
2017-08-27T08:16:00.483Z,27.90
2017-08-27T08:18:27.968Z,27.37
2017-08-27T08:20:55.468Z,28.67
2017-08-27T08:23:22.957Z,27.37
2017-08-27T08:25:50.472Z,28.00
2017-08-27T08:28:17.956Z,28.93
2017-08-27T08:30:45.459Z,27.20
2017-08-27T08:33:12.949Z,27.57
2017-08-27T08:35:40.468Z,24.50
2017-08-27T08:38:07.957Z,24.00
2017-08-27T08:40:35.468Z,25.77
2017-08-27T08:43:02.947Z,25.80
2017-08-27T08:45:30.451Z,25.60
2017-08-27T08:47:57.931Z,26.50
2017-08-27T08:50:25.440Z,23.23
2017-08-27T08:52:52.945Z,24.10
2017-08-27T08:55:20.452Z,25.17
2017-08-27T08:57:47.948Z,24.90
2017-08-27T09:00:15.464Z,29.90
2017-08-27T09:02:42.946Z,35.83
2017-08-27T09:05:10.452Z,30.73
2017-08-27T09:07:37.940Z,25.60
2017-08-27T09:10:05.440Z,26.00
2017-08-27T09:12:32.934Z,24.93
2017-08-27T09:15:00.419Z,26.17
2017-08-27T09:17:27.925Z,25.00
2017-08-27T09:19:55.410Z,25.10
2017-08-27T09:22:22.921Z,24.83
2017-08-27T09:24:50.401Z,25.23
2017-08-27T09:27:17.913Z,23.23
2017-08-27T09:29:45.395Z,24.43
2017-08-27T09:32:12.908Z,22.93
2017-08-27T09:34:40.387Z,23.43
2017-08-27T09:37:07.901Z,24.63
2017-08-27T09:39:35.384Z,25.00
2017-08-27T09:42:02.897Z,24.80
2017-08-27T09:44:30.388Z,23.90
2017-08-27T09:46:57.896Z,40.13
2017-08-27T09:49:25.391Z,34.07
2017-08-27T09:51:52.895Z,26.60
2017-08-27T09:54:20.384Z,23.30
2017-08-27T09:56:47.883Z,22.80
2017-08-27T09:59:15.372Z,22.67
2017-08-27T10:01:42.881Z,21.17
2017-08-27T10:04:10.376Z,22.40
2017-08-27T10:06:37.980Z,22.20
2017-08-27T10:09:05.469Z,21.70
2017-08-27T10:11:33.748Z,23.77
2017-08-27T10:14:01.236Z,23.60
2017-08-27T10:16:28.743Z,25.90
2017-08-27T10:18:56.236Z,29.50
2017-08-27T10:21:23.749Z,24.40
2017-08-27T10:23:51.236Z,23.10
2017-08-27T10:26:18.716Z,24.70
2017-08-27T10:28:46.228Z,23.70
2017-08-27T10:31:13.713Z,23.90
2017-08-27T10:33:41.219Z,22.10
2017-08-27T10:36:08.704Z,24.00
2017-08-27T10:38:36.225Z,25.60
2017-08-27T10:41:03.724Z,23.83
2017-08-27T10:43:31.237Z,22.70
2017-08-27T10:45:58.721Z,23.77
2017-08-27T10:48:26.229Z,23.60
2017-08-27T10:50:53.712Z,23.70
2017-08-27T10:53:21.220Z,23.00
2017-08-27T10:55:48.844Z,25.70
2017-08-27T10:58:16.351Z,23.57
2017-08-27T11:00:43.836Z,23.50
2017-08-27T11:03:11.339Z,26.40
2017-08-27T11:05:38.824Z,24.83
2017-08-27T11:08:06.338Z,24.57
2017-08-27T11:10:33.823Z,25.90
2017-08-27T11:13:01.336Z,26.80
2017-08-27T11:15:28.827Z,27.13
2017-08-27T11:17:56.315Z,29.80
2017-08-27T11:20:23.817Z,25.00
2017-08-27T11:22:51.300Z,31.23
2017-08-27T11:25:18.805Z,28.67
2017-08-27T11:27:46.308Z,25.87
2017-08-27T11:30:13.812Z,26.63
2017-08-27T11:32:41.292Z,26.70
2017-08-27T11:35:08.804Z,26.40
2017-08-27T11:37:36.295Z,28.40
2017-08-27T11:40:03.812Z,25.70
2017-08-27T11:42:31.292Z,28.40
2017-08-27T11:44:58.803Z,30.17
2017-08-27T11:47:26.294Z,28.13
2017-08-27T11:49:53.816Z,28.40
2017-08-27T11:52:21.308Z,25.80
2017-08-27T11:54:48.813Z,24.57
2017-08-27T11:57:16.300Z,25.10
2017-08-27T11:59:43.800Z,27.27
2017-08-27T12:02:11.289Z,25.73
2017-08-27T12:04:38.788Z,25.23
2017-08-27T12:07:06.285Z,24.13
2017-08-27T12:09:33.796Z,28.47
2017-08-27T12:12:01.287Z,26.53
2017-08-27T12:14:28.808Z,23.23
2017-08-27T12:16:56.297Z,28.27
2017-08-27T12:19:23.792Z,24.03
2017-08-27T12:21:51.292Z,24.70
2017-08-27T12:24:18.780Z,60.10
2017-08-27T12:26:46.285Z,43.60
2017-08-27T12:29:13.773Z,53.63
2017-08-27T12:31:41.277Z,28.13
2017-08-27T12:34:08.763Z,25.30
2017-08-27T12:36:36.270Z,25.50
2017-08-27T12:39:03.756Z,24.20
2017-08-27T12:41:31.262Z,28.17
2017-08-27T12:43:58.749Z,30.20
2017-08-27T12:46:26.264Z,26.70
2017-08-27T12:48:53.748Z,30.10
2017-08-27T12:51:21.260Z,28.07
2017-08-27T12:53:48.741Z,27.60
2017-08-27T12:56:16.240Z,27.70
2017-08-27T12:58:43.729Z,25.30
2017-08-27T13:01:11.248Z,25.63
2017-08-27T13:03:38.736Z,30.70
2017-08-27T13:06:06.240Z,35.00
2017-08-27T13:08:33.724Z,28.73
2017-08-27T13:11:01.223Z,25.90
2017-08-27T13:13:28.743Z,24.80
2017-08-27T13:15:56.251Z,25.03
2017-08-27T13:18:23.752Z,25.20
2017-08-27T13:20:51.244Z,24.70
2017-08-27T13:23:18.751Z,24.50
2017-08-27T13:25:46.229Z,24.80
2017-08-27T13:28:13.727Z,25.53
2017-08-27T13:30:41.212Z,26.30
2017-08-27T13:33:08.716Z,25.70
2017-08-27T13:35:36.206Z,25.97
2017-08-27T13:38:03.708Z,24.33
2017-08-27T13:40:31.196Z,23.53
2017-08-27T13:42:58.704Z,24.30
2017-08-27T13:45:26.193Z,24.37
2017-08-27T13:47:53.696Z,23.90
2017-08-27T13:50:21.184Z,24.00
2017-08-27T13:52:48.701Z,25.53
2017-08-27T13:55:16.183Z,27.30
2017-08-27T13:57:43.700Z,24.87
2017-08-27T14:00:11.192Z,21.13
2017-08-27T14:02:38.700Z,22.80
2017-08-27T14:05:06.185Z,21.53
2017-08-27T14:07:33.684Z,20.50
2017-08-27T14:10:01.168Z,22.07
2017-08-27T14:12:28.672Z,23.13
2017-08-27T14:14:56.165Z,23.60
2017-08-27T14:17:23.685Z,21.67
2017-08-27T14:19:51.167Z,21.47
2017-08-27T14:22:18.653Z,20.93
2017-08-27T14:24:46.157Z,20.20
2017-08-27T14:27:13.640Z,20.57
2017-08-27T14:29:41.148Z,21.10
2017-08-27T14:32:08.636Z,21.80
2017-08-27T14:34:36.151Z,22.93
2017-08-27T14:37:03.640Z,27.20
2017-08-27T14:39:31.148Z,28.90
2017-08-27T14:41:58.639Z,23.80
2017-08-27T14:44:26.156Z,20.50
2017-08-27T14:46:53.649Z,20.60
2017-08-27T14:49:21.178Z,20.80
2017-08-27T14:51:48.671Z,22.33
2017-08-27T14:54:16.177Z,23.53
2017-08-27T14:56:43.661Z,25.60
2017-08-27T14:59:11.925Z,22.70
2017-08-27T15:01:39.412Z,22.67
2017-08-27T15:04:06.916Z,23.60
2017-08-27T15:06:34.404Z,23.77
2017-08-27T15:09:01.908Z,22.50
2017-08-27T15:11:29.387Z,24.47
2017-08-27T15:13:56.891Z,21.30
2017-08-27T15:16:24.372Z,25.10
2017-08-27T15:18:51.889Z,35.43
2017-08-27T15:21:19.377Z,24.80
2017-08-27T15:23:46.866Z,24.50
2017-08-27T15:26:14.376Z,23.80
2017-08-27T15:28:41.876Z,25.13
2017-08-27T15:31:09.388Z,22.93
2017-08-27T15:33:36.880Z,21.57
2017-08-27T15:36:04.380Z,25.13
2017-08-27T15:38:31.864Z,22.53
2017-08-27T15:40:59.368Z,23.50
2017-08-27T15:43:26.856Z,23.43
2017-08-27T15:45:54.364Z,20.03
2017-08-27T15:48:21.852Z,22.67
2017-08-27T15:50:49.353Z,24.63
2017-08-27T15:53:16.839Z,25.93
2017-08-27T15:55:44.345Z,23.57
2017-08-27T15:58:11.823Z,21.17
2017-08-27T16:00:39.328Z,23.30
2017-08-27T16:03:06.826Z,22.90
2017-08-27T16:05:34.336Z,23.40
2017-08-27T16:08:01.815Z,40.93
2017-08-27T16:10:29.332Z,25.50
2017-08-27T16:12:56.812Z,23.50
2017-08-27T16:15:24.320Z,23.90
2017-08-27T16:17:51.799Z,22.13
2017-08-27T16:20:19.307Z,22.27
2017-08-27T16:22:46.792Z,24.00
2017-08-27T16:25:14.284Z,21.60
2017-08-27T16:27:41.796Z,21.30
2017-08-27T16:30:09.277Z,22.87
2017-08-27T16:32:36.777Z,22.60
2017-08-27T16:35:04.256Z,23.33
2017-08-27T16:37:31.756Z,28.97
2017-08-27T16:39:59.256Z,32.73
2017-08-27T16:42:26.772Z,30.30
2017-08-27T16:44:54.252Z,27.60
2017-08-27T16:47:33.479Z,25.47
2017-08-27T16:50:00.964Z,26.10
2017-08-27T16:52:28.464Z,25.60
2017-08-27T16:54:55.947Z,29.27
2017-08-27T16:57:23.452Z,27.00
2017-08-27T16:59:50.932Z,27.30
2017-08-27T17:02:18.436Z,27.60
2017-08-27T17:04:45.926Z,27.00
2017-08-27T17:07:13.431Z,28.00
2017-08-27T17:09:40.911Z,30.10
2017-08-27T17:12:08.407Z,24.83
2017-08-27T17:14:35.888Z,25.30
2017-08-27T17:17:03.388Z,26.07
2017-08-27T17:19:30.872Z,24.20
2017-08-27T17:21:58.368Z,27.07
2017-08-27T17:24:25.866Z,27.23
2017-08-27T17:26:53.354Z,24.87
2017-08-27T17:29:20.851Z,26.40
2017-08-27T17:31:48.344Z,25.30
2017-08-27T17:34:15.852Z,25.70
2017-08-27T17:36:43.332Z,23.77
2017-08-27T17:39:10.844Z,24.20
2017-08-27T17:41:38.338Z,25.00
2017-08-27T17:44:06.609Z,23.03
2017-08-27T17:46:34.096Z,24.20
2017-08-27T17:49:02.368Z,28.50
2017-08-27T17:51:29.863Z,31.20
2017-08-27T17:53:57.363Z,31.00
2017-08-27T17:56:24.852Z,30.50
2017-08-27T17:58:52.351Z,28.07
2017-08-27T18:01:19.840Z,24.23
2017-08-27T18:03:47.347Z,25.27
2017-08-27T18:06:14.828Z,23.37
2017-08-27T18:08:42.336Z,24.40
2017-08-27T18:11:09.819Z,24.87
2017-08-27T18:13:37.324Z,25.83
2017-08-27T18:16:04.808Z,26.73
2017-08-27T18:18:32.305Z,25.93
2017-08-27T18:20:59.792Z,26.40
2017-08-27T18:23:27.291Z,25.33
2017-08-27T18:25:54.780Z,26.80
2017-08-27T18:28:22.296Z,25.60
2017-08-27T18:30:49.798Z,27.00
2017-08-27T18:33:17.288Z,26.57
2017-08-27T18:35:44.804Z,25.73
2017-08-27T18:38:12.292Z,25.47
2017-08-27T18:40:39.799Z,25.43
2017-08-27T18:43:07.288Z,25.87
2017-08-27T18:45:35.557Z,26.63
2017-08-27T18:48:03.044Z,26.47
2017-08-27T18:50:30.544Z,30.23
2017-08-27T18:52:58.028Z,68.50
2017-08-27T18:55:25.540Z,41.70
2017-08-27T18:57:53.031Z,29.50
2017-08-27T19:00:20.569Z,27.30
2017-08-27T19:02:53.656Z,27.20
2017-08-27T19:05:21.156Z,26.23
2017-08-27T19:07:48.632Z,25.90
2017-08-27T19:10:16.136Z,27.23
2017-08-27T19:12:43.619Z,27.50
2017-08-27T19:15:11.128Z,25.83
2017-08-27T19:17:38.616Z,26.83
2017-08-27T19:20:06.133Z,27.00
2017-08-27T19:22:33.611Z,25.93
2017-08-27T19:25:01.120Z,24.60
2017-08-27T19:27:28.603Z,26.20
2017-08-27T19:29:56.128Z,24.60
2017-08-27T19:32:23.622Z,23.93
2017-08-27T19:34:51.116Z,23.67
2017-08-27T19:37:18.637Z,24.20
2017-08-27T19:39:46.124Z,24.00
2017-08-27T19:42:13.628Z,23.17
2017-08-27T19:44:41.112Z,24.80
2017-08-27T19:47:08.621Z,23.77
2017-08-27T19:49:36.104Z,25.13
2017-08-27T19:52:03.603Z,23.97
2017-08-27T19:54:31.089Z,23.97
2017-08-27T19:56:58.610Z,23.17
2017-08-27T19:59:26.104Z,23.13
2017-08-27T20:01:53.613Z,23.80
2017-08-27T20:04:21.096Z,22.23
2017-08-27T20:06:48.628Z,23.30
2017-08-27T20:09:16.112Z,23.63
2017-08-27T20:11:43.624Z,24.00
2017-08-27T20:14:11.117Z,24.60
2017-08-27T20:16:38.632Z,91.63
2017-08-27T20:19:06.124Z,56.77
2017-08-27T20:21:33.632Z,29.13
2017-08-27T20:24:01.121Z,25.27
2017-08-27T20:26:28.627Z,24.30
2017-08-27T20:28:56.112Z,23.70
2017-08-27T20:31:23.620Z,23.43
2017-08-27T20:33:51.104Z,22.83
2017-08-27T20:36:18.592Z,23.93
2017-08-27T20:38:46.096Z,23.20
2017-08-27T20:41:13.587Z,24.10
2017-08-27T20:43:41.096Z,22.97
2017-08-27T20:46:08.580Z,22.53
2017-08-27T20:48:36.091Z,23.77
2017-08-27T20:51:03.575Z,22.87
2017-08-27T20:53:31.083Z,22.50
2017-08-27T20:55:58.567Z,23.30
2017-08-27T20:58:26.074Z,23.60
2017-08-27T21:00:53.571Z,21.33
2017-08-27T21:03:21.086Z,22.37
2017-08-27T21:05:48.572Z,22.87
2017-08-27T21:08:16.081Z,22.50
2017-08-27T21:10:43.573Z,22.47
2017-08-27T21:13:11.075Z,21.83
2017-08-27T21:15:38.567Z,21.57
2017-08-27T21:18:06.072Z,22.57
2017-08-27T21:20:33.556Z,39.33
2017-08-27T21:23:01.063Z,31.60
2017-08-27T21:25:28.552Z,23.90
2017-08-27T21:27:56.056Z,23.20
2017-08-27T21:30:23.539Z,24.10
2017-08-27T21:32:51.044Z,24.47
2017-08-27T21:35:18.552Z,23.23
2017-08-27T21:37:46.035Z,23.40
2017-08-27T21:40:13.557Z,24.97
2017-08-27T21:42:41.044Z,23.17
2017-08-27T21:45:08.555Z,22.27
2017-08-27T21:47:36.041Z,22.53
2017-08-27T21:50:03.551Z,23.10
2017-08-27T21:52:31.049Z,21.20
2017-08-27T21:54:58.557Z,21.20
2017-08-27T21:57:26.052Z,21.27
2017-08-27T21:59:53.554Z,23.63
2017-08-27T22:02:21.041Z,23.37
2017-08-27T22:04:48.555Z,21.83
2017-08-27T22:07:16.044Z,22.50
2017-08-27T22:09:43.553Z,21.63
2017-08-27T22:12:11.049Z,21.50
2017-08-27T22:14:38.557Z,21.27
2017-08-27T22:17:06.057Z,22.77
2017-08-27T22:19:33.564Z,20.50
2017-08-27T22:22:01.049Z,20.33
2017-08-27T22:24:28.562Z,21.03
2017-08-27T22:26:56.043Z,21.53
2017-08-27T22:29:23.548Z,20.77
2017-08-27T22:31:51.805Z,20.40
2017-08-27T22:34:19.288Z,20.63
2017-08-27T22:36:46.792Z,20.37
2017-08-27T22:39:14.271Z,20.57
2017-08-27T22:41:41.776Z,20.23
2017-08-27T22:44:09.276Z,20.07
2017-08-27T22:46:36.785Z,18.80
2017-08-27T22:49:04.279Z,18.87
2017-08-27T22:51:31.779Z,18.10
2017-08-27T22:53:59.264Z,18.40
2017-08-27T22:56:26.780Z,18.50
2017-08-27T22:58:54.264Z,17.27
2017-08-27T23:01:21.776Z,17.47
2017-08-27T23:03:49.264Z,17.50
2017-08-27T23:06:16.763Z,19.60
2017-08-27T23:08:44.246Z,19.03
2017-08-27T23:11:12.612Z,17.37
2017-08-27T23:13:40.104Z,17.43
2017-08-27T23:16:07.608Z,17.87
2017-08-27T23:18:35.104Z,18.00
2017-08-27T23:21:02.614Z,16.30
2017-08-27T23:23:30.099Z,17.13
2017-08-27T23:25:57.603Z,17.47
2017-08-27T23:28:25.088Z,18.33
2017-08-27T23:30:52.595Z,17.20
2017-08-27T23:33:20.088Z,19.70
2017-08-27T23:35:47.576Z,16.10
2017-08-27T23:38:15.080Z,16.70
2017-08-27T23:40:42.572Z,17.40
2017-08-27T23:43:10.080Z,17.13
2017-08-27T23:45:37.563Z,16.17
2017-08-27T23:48:05.072Z,15.73
2017-08-27T23:50:32.560Z,15.93
2017-08-27T23:53:00.072Z,15.40
2017-08-27T23:55:27.559Z,14.97
2017-08-27T23:57:55.068Z,15.00
